BVLO2: Caney River, Bartlesville, OK

                                SHEF ID:       BVLO2     Caney River above Coon Creek at
STATION TYPE:
Regulating: Stage = 13.00, Flow = 14009

PRECIP STAGE STAGE(2) RIV-FLOW BAT-LOAD
in ft ft cfs volt
Ccp-Rev Ccp-Rev Ccp-Rev Ccp-Rev Ccp-Rev
(America/Chicago)
05/01 00:00 0.00 5.18 ---- 2253 12.73
05/01 01:00 0.00 5.14 ---- 2205 12.65
05/01 02:00 0.00 5.10 ---- 2155 12.65
05/01 03:00 0.00 5.07 ---- 2118 12.65
05/01 04:00 0.00 5.04 ---- 2081 12.65
05/01 05:00 0.00 5.02 ---- 2056 12.57
05/01 06:00 0.00 5.00 ---- 2031 12.57
05/01 07:00 0.00 4.98 ---- 2000 12.57
05/01 08:00 0.00 4.97 ---- 1985 12.57
05/01 09:00 0.00 4.95 ---- 1954 13.60
05/01 10:00 0.00 4.94 ---- 1939 13.68
05/01 11:00 0.00 4.93 ---- 1924 13.53
05/01 12:00 0.00 4.92 ---- 1909 13.44
05/01 13:00 0.00 4.91 ---- 1894 13.37
05/01 14:00 0.00 4.90 ---- 1879 13.37
05/01 15:00 0.00 4.87 ---- 1832 13.44
05/01 16:00 0.00 4.84 ---- 1785 13.37
05/01 17:00 0.00 4.78 ---- 1692 13.29
05/01 18:00 0.00 4.72 ---- 1599 13.29
05/01 19:00 0.00 4.66 ---- 1508 13.29
05/01 20:00 0.00 4.59 ---- 1404 13.21
05/01 21:00 0.00 4.51 ---- 1284 12.89
05/01 22:00 0.00 4.44 ---- 1178 12.73
05/01 23:00 0.00 4.38 ---- 1088 12.73
Data processed at Sat 02May2026 04:14 GMT

NOTICE: If you are parsing this page

Please convert to using our Data API. Starting early 2026 we will be migrating to: https://water.usace.army.mil with modern pages rendered in JavaScript. When this migration completes you will no longer be able to scrape this page! CWMSDataAPI (CDA)

Timeseries IDs (TSIDs)

TSIDs used from left to right in the data table
BART.Precip-Inc.Total.1Hour.1Hour.Ccp-Rev
BART.Stage.Inst.1Hour.0.Ccp-Rev
BART.Stage-Alt.Inst.1Hour.0.Ccp-Rev
BART.Flow.Inst.1Hour.0.Ccp-Rev
BART.Volt-Battery Load.Inst.1Hour.0.Ccp-Rev

                            

All information presented herein is the property of the government of the United States of America and may be revised or deleted at any time without prior notice. Dissemination of this information without the expressed written consent of the Public Affairs Office, Tulsa District U.S. Army Corps of Engineers is strictly prohibited. These data are gathered electronically and, as presented, have NOT undergone any form of quality control. These data are NOT guaranteed to be valid or correct.